Time,TemperatureF,DewpointF,PressureIn,WindDirection,WindDirectionDegrees,WindSpeedMPH,WindSpeedGustMPH,Humidity,HourlyPrecipIn,Conditions,Clouds,dailyrainin,SoftwareType,DateUTC
2013-07-08 00:00:00,77.6,72.7,30.10,NE,45,0.0,1.0,85,0.00,,,0.00,WUHU216DAVISVP2,2013-07-08 04:00:00,
2013-07-08 00:01:00,77.6,72.8,30.10,North,0,1.0,1.0,85,0.00,,,0.01,WUHU216DAVISVP2,2013-07-08 04:01:00,
2013-07-08 00:05:00,77.4,72.5,30.10,North,0,0.0,4.0,85,0.00,,,0.00,WUHU216DAVISVP2,2013-07-08 04:05:00,
2013-07-08 00:06:00,77.2,72.4,30.10,NNE,27,0.0,2.0,85,0.15,,,0.15,WUHU216DAVISVP2,2013-07-08 04:06:00,
2013-07-08 00:10:00,77.3,72.4,30.10,North,0,0.0,4.0,85,0.13,,,0.13,WUHU216DAVISVP2,2013-07-08 04:10:00,
2013-07-08 00:11:00,77.0,72.5,30.10,NNE,27,0.0,2.0,86,0.15,,,0.15,WUHU216DAVISVP2,2013-07-08 04:11:00,
2013-07-08 00:15:00,77.0,72.5,30.09,North,0,0.0,4.0,86,0.15,,,0.15,WUHU216DAVISVP2,2013-07-08 04:15:00,
2013-07-08 00:16:00,77.0,72.5,30.09,NNE,27,0.0,0.0,86,0.15,,,0.15,WUHU216DAVISVP2,2013-07-08 04:16:00,
2013-07-08 00:20:00,77.0,72.5,30.09,North,0,0.0,0.0,86,0.15,,,0.15,WUHU216DAVISVP2,2013-07-08 04:20:00,
2013-07-08 00:21:00,77.0,72.5,30.09,NNE,27,0.0,0.0,86,0.15,,,0.15,WUHU216DAVISVP2,2013-07-08 04:21:00,
2013-07-08 00:25:00,77.0,72.5,30.09,North,0,0.0,0.0,86,0.15,,,0.15,WUHU216DAVISVP2,2013-07-08 04:25:00,
2013-07-08 00:26:00,77.0,72.5,30.09,NNE,27,0.0,0.0,86,0.15,,,0.15,WUHU216DAVISVP2,2013-07-08 04:26:00,
2013-07-08 00:30:00,77.0,72.5,30.09,North,0,0.0,0.0,86,0.15,,,0.15,WUHU216DAVISVP2,2013-07-08 04:30:00,
2013-07-08 00:31:00,77.0,72.5,30.09,NNE,27,0.0,0.0,86,0.15,,,0.15,WUHU216DAVISVP2,2013-07-08 04:31:00,
2013-07-08 00:35:00,77.0,72.5,30.09,North,0,0.0,0.0,86,0.15,,,0.15,WUHU216DAVISVP2,2013-07-08 04:35:00,
2013-07-08 00:36:00,77.0,72.5,30.09,NNE,27,0.0,0.0,86,0.15,,,0.15,WUHU216DAVISVP2,2013-07-08 04:36:00,
2013-07-08 00:40:00,76.9,72.4,30.09,North,0,0.0,0.0,86,0.15,,,0.15,WUHU216DAVISVP2,2013-07-08 04:40:00,
2013-07-08 00:41:00,76.8,72.3,30.09,NNE,27,0.0,0.0,86,0.15,,,0.15,WUHU216DAVISVP2,2013-07-08 04:41:00,
2013-07-08 00:45:00,76.8,72.3,30.09,North,0,0.0,0.0,86,0.15,,,0.15,WUHU216DAVISVP2,2013-07-08 04:45:00,
2013-07-08 00:46:00,76.7,72.2,30.09,NNE,27,0.0,0.0,86,0.15,,,0.15,WUHU216DAVISVP2,2013-07-08 04:46:00,
2013-07-08 00:50:00,76.8,72.6,30.09,North,0,0.0,0.0,87,0.15,,,0.15,WUHU216DAVISVP2,2013-07-08 04:50:00,
2013-07-08 00:51:00,76.7,72.5,30.09,NNE,27,0.0,0.0,87,0.15,,,0.15,WUHU216DAVISVP2,2013-07-08 04:51:00,
2013-07-08 00:55:00,76.7,72.5,30.09,North,0,0.0,0.0,87,0.15,,,0.15,WUHU216DAVISVP2,2013-07-08 04:55:00,
2013-07-08 00:56:00,76.7,72.5,30.09,NNE,27,0.0,0.0,87,0.15,,,0.15,WUHU216DAVISVP2,2013-07-08 04:56:00,
2013-07-08 01:00:00,76.7,72.5,30.08,North,0,0.0,0.0,87,0.15,,,0.15,WUHU216DAVISVP2,2013-07-08 05:00:00,
2013-07-08 01:01:00,76.5,72.4,30.08,NNE,27,0.0,0.0,87,0.11,,,0.15,WUHU216DAVISVP2,2013-07-08 05:01:00,
2013-07-08 01:05:00,76.6,72.4,30.08,North,0,0.0,0.0,87,0.02,,,0.15,WUHU216DAVISVP2,2013-07-08 05:05:00,
2013-07-08 01:06:00,76.5,72.4,30.08,NNE,27,0.0,0.0,87,0.00,,,0.15,WUHU216DAVISVP2,2013-07-08 05:06:00,
2013-07-08 01:10:00,76.6,72.4,30.08,North,0,0.0,0.0,87,0.00,,,0.15,WUHU216DAVISVP2,2013-07-08 05:10:00,
2013-07-08 01:11:00,76.5,72.4,30.08,NNE,27,0.0,0.0,87,0.00,,,0.15,WUHU216DAVISVP2,2013-07-08 05:11:00,
2013-07-08 01:15:00,76.4,72.2,30.09,North,0,0.0,0.0,87,0.00,,,0.15,WUHU216DAVISVP2,2013-07-08 05:15:00,
2013-07-08 01:16:00,76.3,72.1,30.09,NNE,27,0.0,0.0,87,0.00,,,0.15,WUHU216DAVISVP2,2013-07-08 05:16:00,
2013-07-08 01:20:00,76.3,72.1,30.09,North,0,0.0,0.0,87,0.00,,,0.15,WUHU216DAVISVP2,2013-07-08 05:20:00,
2013-07-08 01:21:00,76.3,72.1,30.09,NNE,27,0.0,0.0,87,0.00,,,0.15,WUHU216DAVISVP2,2013-07-08 05:21:00,
2013-07-08 01:25:00,76.3,72.5,30.09,North,0,0.0,0.0,88,0.00,,,0.15,WUHU216DAVISVP2,2013-07-08 05:25:00,
2013-07-08 01:26:00,76.3,72.5,30.09,NNE,27,0.0,0.0,88,0.00,,,0.15,WUHU216DAVISVP2,2013-07-08 05:26:00,
2013-07-08 01:30:00,76.3,72.5,30.08,North,0,0.0,0.0,88,0.00,,,0.15,WUHU216DAVISVP2,2013-07-08 05:30:00,
2013-07-08 01:31:00,76.1,72.3,30.08,NNE,27,0.0,0.0,88,0.00,,,0.15,WUHU216DAVISVP2,2013-07-08 05:31:00,
2013-07-08 01:35:00,76.2,72.4,30.08,North,0,0.0,0.0,88,0.00,,,0.15,WUHU216DAVISVP2,2013-07-08 05:35:00,
2013-07-08 01:36:00,76.3,72.5,30.08,NNE,27,0.0,0.0,88,0.00,,,0.15,WUHU216DAVISVP2,2013-07-08 05:36:00,
2013-07-08 01:40:00,76.2,72.4,30.08,North,0,0.0,0.0,88,0.00,,,0.15,WUHU216DAVISVP2,2013-07-08 05:40:00,
2013-07-08 01:41:00,76.1,72.3,30.08,NNE,27,0.0,0.0,88,0.00,,,0.15,WUHU216DAVISVP2,2013-07-08 05:41:00,
2013-07-08 01:45:00,76.1,72.3,30.08,North,0,0.0,0.0,88,0.00,,,0.15,WUHU216DAVISVP2,2013-07-08 05:45:00,
2013-07-08 01:46:00,76.1,72.3,30.08,NNE,27,0.0,0.0,88,0.00,,,0.15,WUHU216DAVISVP2,2013-07-08 05:46:00,
2013-07-08 01:50:00,76.1,72.3,30.08,North,0,0.0,0.0,88,0.00,,,0.15,WUHU216DAVISVP2,2013-07-08 05:50:00,
2013-07-08 01:51:00,76.1,72.3,30.08,NNE,27,0.0,0.0,88,0.00,,,0.15,WUHU216DAVISVP2,2013-07-08 05:51:00,
2013-07-08 01:55:00,76.1,72.3,30.08,North,0,0.0,0.0,88,0.00,,,0.15,WUHU216DAVISVP2,2013-07-08 05:55:00,
2013-07-08 01:56:00,76.3,72.5,30.08,NNE,27,0.0,0.0,88,0.00,,,0.15,WUHU216DAVISVP2,2013-07-08 05:56:00,
2013-07-08 02:00:00,76.2,72.4,30.07,North,0,0.0,0.0,88,0.00,,,0.15,WUHU216DAVISVP2,2013-07-08 06:00:00,
2013-07-08 02:01:00,76.1,72.3,30.07,NNE,27,0.0,0.0,88,0.00,,,0.15,WUHU216DAVISVP2,2013-07-08 06:01:00,
2013-07-08 02:05:00,76.1,72.3,30.07,North,0,0.0,0.0,88,0.00,,,0.15,WUHU216DAVISVP2,2013-07-08 06:05:00,
2013-07-08 02:06:00,76.1,72.3,30.07,NNE,27,0.0,0.0,88,0.00,,,0.15,WUHU216DAVISVP2,2013-07-08 06:06:00,
2013-07-08 02:10:00,76.1,72.3,30.07,North,0,0.0,0.0,88,0.00,,,0.15,WUHU216DAVISVP2,2013-07-08 06:10:00,
2013-07-08 02:11:00,76.1,72.3,30.07,NNE,27,0.0,0.0,88,0.00,,,0.15,WUHU216DAVISVP2,2013-07-08 06:11:00,
2013-07-08 02:15:00,76.1,72.3,30.07,North,0,0.0,0.0,88,0.00,,,0.15,WUHU216DAVISVP2,2013-07-08 06:15:00,
2013-07-08 02:16:00,76.1,72.3,30.07,NNE,27,0.0,0.0,88,0.00,,,0.15,WUHU216DAVISVP2,2013-07-08 06:16:00,
2013-07-08 02:20:00,76.1,72.3,30.07,North,0,0.0,0.0,88,0.00,,,0.15,WUHU216DAVISVP2,2013-07-08 06:20:00,
2013-07-08 02:21:00,76.1,72.3,30.07,NNE,27,0.0,0.0,88,0.00,,,0.15,WUHU216DAVISVP2,2013-07-08 06:21:00,
2013-07-08 02:25:00,76.1,72.3,30.07,North,0,0.0,0.0,88,0.00,,,0.15,WUHU216DAVISVP2,2013-07-08 06:25:00,
2013-07-08 02:26:00,76.1,72.3,30.07,NNE,27,0.0,0.0,88,0.00,,,0.15,WUHU216DAVISVP2,2013-07-08 06:26:00,
2013-07-08 02:30:00,76.1,72.3,30.07,North,0,0.0,0.0,88,0.00,,,0.15,WUHU216DAVISVP2,2013-07-08 06:30:00,
2013-07-08 02:31:00,76.1,72.3,30.07,NNE,27,0.0,0.0,88,0.00,,,0.15,WUHU216DAVISVP2,2013-07-08 06:31:00,
2013-07-08 02:35:00,76.1,72.3,30.07,North,0,0.0,0.0,88,0.00,,,0.15,WUHU216DAVISVP2,2013-07-08 06:35:00,
2013-07-08 02:36:00,76.1,72.3,30.07,NNE,27,0.0,0.0,88,0.00,,,0.15,WUHU216DAVISVP2,2013-07-08 06:36:00,
2013-07-08 02:40:00,76.1,72.3,30.07,North,0,0.0,0.0,88,0.00,,,0.15,WUHU216DAVISVP2,2013-07-08 06:40:00,
2013-07-08 02:42:00,76.1,72.3,30.07,NNE,27,0.0,0.0,88,0.01,,,0.16,WUHU216DAVISVP2,2013-07-08 06:42:00,
2013-07-08 02:45:00,76.1,72.6,30.07,North,0,0.0,0.0,89,0.01,,,0.16,WUHU216DAVISVP2,2013-07-08 06:45:00,
2013-07-08 02:47:00,76.1,72.6,30.07,NNE,27,0.0,0.0,89,0.01,,,0.16,WUHU216DAVISVP2,2013-07-08 06:47:00,
2013-07-08 02:50:00,76.2,72.7,30.07,North,0,0.0,0.0,89,0.01,,,0.16,WUHU216DAVISVP2,2013-07-08 06:50:00,
2013-07-08 02:52:00,76.3,72.8,30.07,NNE,27,0.0,0.0,89,0.01,,,0.16,WUHU216DAVISVP2,2013-07-08 06:52:00,
2013-07-08 02:55:00,76.3,72.8,30.07,North,0,0.0,0.0,89,0.01,,,0.16,WUHU216DAVISVP2,2013-07-08 06:55:00,
2013-07-08 02:57:00,76.5,73.0,30.07,NNE,27,0.0,0.0,89,0.01,,,0.16,WUHU216DAVISVP2,2013-07-08 06:57:00,
2013-07-08 03:00:00,76.4,72.9,30.08,North,0,0.0,0.0,89,0.01,,,0.16,WUHU216DAVISVP2,2013-07-08 07:00:00,
2013-07-08 03:02:00,76.5,73.0,30.08,NNE,25,0.0,0.0,89,0.01,,,0.16,WUHU216DAVISVP2,2013-07-08 07:02:00,
2013-07-08 03:05:00,76.7,73.2,30.08,North,0,0.0,0.0,89,0.01,,,0.16,WUHU216DAVISVP2,2013-07-08 07:05:00,
2013-07-08 03:07:00,76.8,73.3,30.08,NNE,25,0.0,0.0,89,0.01,,,0.16,WUHU216DAVISVP2,2013-07-08 07:07:00,
2013-07-08 03:10:00,76.7,73.2,30.08,North,0,0.0,0.0,89,0.01,,,0.16,WUHU216DAVISVP2,2013-07-08 07:10:00,
2013-07-08 03:12:00,76.7,73.2,30.08,NNE,25,0.0,0.0,89,0.01,,,0.16,WUHU216DAVISVP2,2013-07-08 07:12:00,
2013-07-08 03:15:00,76.8,73.3,30.08,North,0,0.0,0.0,89,0.01,,,0.16,WUHU216DAVISVP2,2013-07-08 07:15:00,
2013-07-08 03:17:00,76.8,73.3,30.08,NNE,25,0.0,0.0,89,0.01,,,0.16,WUHU216DAVISVP2,2013-07-08 07:17:00,
2013-07-08 03:20:00,76.8,73.3,30.08,North,0,0.0,0.0,89,0.01,,,0.16,WUHU216DAVISVP2,2013-07-08 07:20:00,
2013-07-08 03:22:00,76.8,73.3,30.08,NNE,25,0.0,0.0,89,0.01,,,0.16,WUHU216DAVISVP2,2013-07-08 07:22:00,
2013-07-08 03:25:00,76.8,73.3,30.08,North,0,0.0,0.0,89,0.01,,,0.16,WUHU216DAVISVP2,2013-07-08 07:25:00,
2013-07-08 03:27:00,76.8,73.3,30.08,NNE,25,0.0,0.0,89,0.01,,,0.16,WUHU216DAVISVP2,2013-07-08 07:27:00,
2013-07-08 03:30:00,76.9,73.4,30.08,North,0,0.0,0.0,89,0.01,,,0.16,WUHU216DAVISVP2,2013-07-08 07:30:00,
2013-07-08 03:32:00,76.8,73.3,30.08,NNE,25,0.0,0.0,89,0.01,,,0.16,WUHU216DAVISVP2,2013-07-08 07:32:00,
2013-07-08 03:35:00,76.8,73.3,30.08,NNE,23,0.0,1.0,89,0.01,,,0.16,WUHU216DAVISVP2,2013-07-08 07:35:00,
2013-07-08 03:37:00,77.0,73.5,30.08,NNE,21,0.0,1.0,89,0.01,,,0.16,WUHU216DAVISVP2,2013-07-08 07:37:00,
2013-07-08 03:40:00,76.9,73.4,30.08,North,0,0.0,1.0,89,0.00,,,0.16,WUHU216DAVISVP2,2013-07-08 07:40:00,
2013-07-08 03:42:00,76.8,73.3,30.08,NNE,21,0.0,1.0,89,0.00,,,0.16,WUHU216DAVISVP2,2013-07-08 07:42:00,
2013-07-08 03:45:00,76.9,73.4,30.09,North,0,0.0,1.0,89,0.00,,,0.16,WUHU216DAVISVP2,2013-07-08 07:45:00,
2013-07-08 03:47:00,77.2,74.0,30.09,NNE,21,0.0,0.0,90,0.00,,,0.16,WUHU216DAVISVP2,2013-07-08 07:47:00,
2013-07-08 03:50:00,77.0,73.8,30.09,North,0,0.0,0.0,90,0.00,,,0.16,WUHU216DAVISVP2,2013-07-08 07:50:00,
2013-07-08 03:52:00,77.2,73.7,30.09,NNE,21,0.0,0.0,89,0.00,,,0.16,WUHU216DAVISVP2,2013-07-08 07:52:00,
2013-07-08 03:55:00,77.0,73.5,30.09,North,0,0.0,0.0,89,0.00,,,0.16,WUHU216DAVISVP2,2013-07-08 07:55:00,
2013-07-08 03:58:00,77.0,73.5,30.09,NNE,21,0.0,0.0,89,0.00,,,0.16,WUHU216DAVISVP2,2013-07-08 07:58:00,
2013-07-08 04:00:00,77.0,73.8,30.08,North,0,0.0,0.0,90,0.00,,,0.16,WUHU216DAVISVP2,2013-07-08 08:00:00,
2013-07-08 04:03:00,76.8,73.3,30.08,NNE,21,0.0,0.0,89,0.00,,,0.16,WUHU216DAVISVP2,2013-07-08 08:03:00,
2013-07-08 04:05:00,77.0,73.5,30.08,North,0,0.0,0.0,89,0.00,,,0.16,WUHU216DAVISVP2,2013-07-08 08:05:00,
2013-07-08 04:08:00,76.8,73.6,30.08,NNE,21,0.0,0.0,90,0.00,,,0.16,WUHU216DAVISVP2,2013-07-08 08:08:00,
2013-07-08 04:10:00,76.9,73.7,30.08,North,0,0.0,0.0,90,0.00,,,0.16,WUHU216DAVISVP2,2013-07-08 08:10:00,
2013-07-08 04:13:00,76.8,73.6,30.09,NNE,21,0.0,0.0,90,0.00,,,0.16,WUHU216DAVISVP2,2013-07-08 08:13:00,
2013-07-08 04:15:00,76.8,73.6,30.09,North,0,0.0,0.0,90,0.00,,,0.16,WUHU216DAVISVP2,2013-07-08 08:15:00,
2013-07-08 04:18:00,76.7,73.5,30.09,NNE,21,0.0,0.0,90,0.00,,,0.16,WUHU216DAVISVP2,2013-07-08 08:18:00,
2013-07-08 04:20:00,76.7,73.5,30.09,North,0,0.0,0.0,90,0.00,,,0.16,WUHU216DAVISVP2,2013-07-08 08:20:00,
2013-07-08 04:23:00,77.0,73.8,30.09,NNE,21,0.0,0.0,90,0.01,,,0.17,WUHU216DAVISVP2,2013-07-08 08:23:00,
2013-07-08 04:25:00,76.8,73.6,30.09,North,0,0.0,0.0,90,0.01,,,0.17,WUHU216DAVISVP2,2013-07-08 08:25:00,
2013-07-08 04:28:00,76.7,73.2,30.09,NNE,21,0.0,0.0,89,0.01,,,0.17,WUHU216DAVISVP2,2013-07-08 08:28:00,
2013-07-08 04:30:00,76.8,73.6,30.09,North,0,0.0,0.0,90,0.01,,,0.17,WUHU216DAVISVP2,2013-07-08 08:30:00,
2013-07-08 04:33:00,76.8,73.6,30.09,NNE,21,0.0,0.0,90,0.01,,,0.17,WUHU216DAVISVP2,2013-07-08 08:33:00,
2013-07-08 04:35:00,76.8,73.6,30.09,North,0,0.0,0.0,90,0.01,,,0.17,WUHU216DAVISVP2,2013-07-08 08:35:00,
2013-07-08 04:38:00,76.7,73.5,30.09,NNE,21,0.0,0.0,90,0.01,,,0.17,WUHU216DAVISVP2,2013-07-08 08:38:00,
2013-07-08 04:40:00,76.8,73.6,30.09,North,0,0.0,0.0,90,0.01,,,0.17,WUHU216DAVISVP2,2013-07-08 08:40:00,
2013-07-08 04:43:00,76.7,73.5,30.09,NNE,21,0.0,0.0,90,0.01,,,0.17,WUHU216DAVISVP2,2013-07-08 08:43:00,
2013-07-08 04:45:00,76.7,73.5,30.09,North,0,0.0,0.0,90,0.01,,,0.17,WUHU216DAVISVP2,2013-07-08 08:45:00,
2013-07-08 04:48:00,76.7,73.5,30.09,NNE,21,0.0,0.0,90,0.01,,,0.17,WUHU216DAVISVP2,2013-07-08 08:48:00,
2013-07-08 04:50:00,76.7,73.5,30.09,North,0,0.0,0.0,90,0.01,,,0.17,WUHU216DAVISVP2,2013-07-08 08:50:00,
2013-07-08 04:53:00,76.7,73.5,30.09,NNE,21,0.0,0.0,90,0.01,,,0.17,WUHU216DAVISVP2,2013-07-08 08:53:00,
2013-07-08 04:55:00,76.7,73.5,30.09,North,0,0.0,0.0,90,0.01,,,0.17,WUHU216DAVISVP2,2013-07-08 08:55:00,
2013-07-08 04:58:00,76.8,73.6,30.09,NNE,21,0.0,0.0,90,0.02,,,0.18,WUHU216DAVISVP2,2013-07-08 08:58:00,
2013-07-08 05:00:00,76.7,73.5,30.09,North,0,0.0,0.0,90,0.01,,,0.17,WUHU216DAVISVP2,2013-07-08 09:00:00,
2013-07-08 05:03:00,76.8,73.6,30.09,NNE,21,0.0,0.0,90,0.02,,,0.18,WUHU216DAVISVP2,2013-07-08 09:03:00,
2013-07-08 05:05:00,76.7,73.5,30.09,North,0,0.0,0.0,90,0.02,,,0.18,WUHU216DAVISVP2,2013-07-08 09:05:00,
2013-07-08 05:08:00,76.8,73.6,30.09,NNE,21,0.0,0.0,90,0.02,,,0.18,WUHU216DAVISVP2,2013-07-08 09:08:00,
2013-07-08 05:10:00,76.7,73.5,30.09,North,0,0.0,0.0,90,0.02,,,0.18,WUHU216DAVISVP2,2013-07-08 09:10:00,
2013-07-08 05:13:00,76.8,73.6,30.09,NNE,21,0.0,0.0,90,0.03,,,0.19,WUHU216DAVISVP2,2013-07-08 09:13:00,
2013-07-08 05:15:00,76.7,73.5,30.08,North,0,0.0,0.0,90,0.02,,,0.18,WUHU216DAVISVP2,2013-07-08 09:15:00,
2013-07-08 05:18:00,76.7,73.5,30.08,NNE,21,0.0,0.0,90,0.04,,,0.20,WUHU216DAVISVP2,2013-07-08 09:18:00,
2013-07-08 05:20:00,76.7,73.5,30.08,North,0,0.0,0.0,90,0.02,,,0.19,WUHU216DAVISVP2,2013-07-08 09:20:00,
2013-07-08 05:23:00,76.5,73.3,30.08,NNE,21,0.0,0.0,90,0.03,,,0.20,WUHU216DAVISVP2,2013-07-08 09:23:00,
2013-07-08 05:25:00,76.6,73.4,30.08,North,0,0.0,0.0,90,0.03,,,0.20,WUHU216DAVISVP2,2013-07-08 09:25:00,
2013-07-08 05:28:00,76.5,73.3,30.08,NNE,21,0.0,0.0,90,0.03,,,0.20,WUHU216DAVISVP2,2013-07-08 09:28:00,
2013-07-08 05:30:00,76.5,73.3,30.08,North,0,0.0,0.0,90,0.03,,,0.20,WUHU216DAVISVP2,2013-07-08 09:30:00,
2013-07-08 05:33:00,76.3,73.1,30.08,NNE,21,0.0,0.0,90,0.03,,,0.20,WUHU216DAVISVP2,2013-07-08 09:33:00,
2013-07-08 05:35:00,76.4,73.2,30.08,North,0,0.0,0.0,90,0.03,,,0.20,WUHU216DAVISVP2,2013-07-08 09:35:00,
2013-07-08 05:38:00,76.3,73.1,30.08,NNE,21,0.0,0.0,90,0.03,,,0.20,WUHU216DAVISVP2,2013-07-08 09:38:00,
2013-07-08 05:40:00,76.3,73.1,30.08,North,0,0.0,0.0,90,0.03,,,0.20,WUHU216DAVISVP2,2013-07-08 09:40:00,
2013-07-08 05:43:00,76.1,72.9,30.08,NNE,21,0.0,0.0,90,0.03,,,0.20,WUHU216DAVISVP2,2013-07-08 09:43:00,
2013-07-08 05:45:00,76.2,73.1,30.08,North,0,0.0,0.0,90,0.03,,,0.20,WUHU216DAVISVP2,2013-07-08 09:45:00,
2013-07-08 05:48:00,76.1,72.9,30.08,NNE,21,0.0,0.0,90,0.03,,,0.20,WUHU216DAVISVP2,2013-07-08 09:48:00,
2013-07-08 05:50:00,76.2,73.1,30.08,North,0,0.0,0.0,90,0.03,,,0.20,WUHU216DAVISVP2,2013-07-08 09:50:00,
2013-07-08 05:53:00,76.3,73.1,30.08,NNE,21,0.0,0.0,90,0.03,,,0.20,WUHU216DAVISVP2,2013-07-08 09:53:00,
2013-07-08 05:55:00,76.2,73.1,30.08,North,0,0.0,0.0,90,0.03,,,0.20,WUHU216DAVISVP2,2013-07-08 09:55:00,
2013-07-08 05:58:00,76.1,72.9,30.08,NNE,21,0.0,0.0,90,0.02,,,0.20,WUHU216DAVISVP2,2013-07-08 09:58:00,
2013-07-08 06:00:00,76.2,73.1,30.09,North,0,0.0,0.0,90,0.02,,,0.20,WUHU216DAVISVP2,2013-07-08 10:00:00,
2013-07-08 06:03:00,76.3,73.1,30.09,NNE,21,0.0,0.0,90,0.02,,,0.20,WUHU216DAVISVP2,2013-07-08 10:03:00,
2013-07-08 06:05:00,76.2,73.1,30.09,North,0,0.0,0.0,90,0.02,,,0.20,WUHU216DAVISVP2,2013-07-08 10:05:00,
2013-07-08 06:08:00,76.3,73.1,30.09,NNE,21,0.0,0.0,90,0.02,,,0.20,WUHU216DAVISVP2,2013-07-08 10:08:00,
2013-07-08 06:10:00,76.2,73.1,30.09,North,0,0.0,0.0,90,0.02,,,0.20,WUHU216DAVISVP2,2013-07-08 10:10:00,
2013-07-08 06:13:00,76.3,73.1,30.09,NNE,21,0.0,0.0,90,0.03,,,0.22,WUHU216DAVISVP2,2013-07-08 10:13:00,
2013-07-08 06:15:00,76.2,73.1,30.09,North,0,0.0,0.0,90,0.01,,,0.20,WUHU216DAVISVP2,2013-07-08 10:15:00,
2013-07-08 06:18:00,76.1,72.9,30.09,NNE,21,0.0,0.0,90,0.03,,,0.23,WUHU216DAVISVP2,2013-07-08 10:18:00,
2013-07-08 06:20:00,76.3,73.1,30.09,North,0,0.0,0.0,90,0.02,,,0.22,WUHU216DAVISVP2,2013-07-08 10:20:00,
2013-07-08 06:23:00,76.3,73.1,30.09,NNE,21,0.0,0.0,90,0.03,,,0.23,WUHU216DAVISVP2,2013-07-08 10:23:00,
2013-07-08 06:25:00,76.3,73.1,30.09,North,0,0.0,0.0,90,0.03,,,0.23,WUHU216DAVISVP2,2013-07-08 10:25:00,
2013-07-08 06:28:00,76.5,73.3,30.09,NNE,21,0.0,0.0,90,0.04,,,0.24,WUHU216DAVISVP2,2013-07-08 10:28:00,
2013-07-08 06:30:00,76.3,73.1,30.10,North,0,0.0,0.0,90,0.03,,,0.23,WUHU216DAVISVP2,2013-07-08 10:30:00,
2013-07-08 06:33:00,76.3,73.1,30.10,NNE,21,0.0,0.0,90,0.04,,,0.24,WUHU216DAVISVP2,2013-07-08 10:33:00,
2013-07-08 06:35:00,76.3,73.1,30.10,North,0,0.0,0.0,90,0.04,,,0.24,WUHU216DAVISVP2,2013-07-08 10:35:00,
2013-07-08 06:38:00,76.3,73.1,30.10,NNE,21,0.0,0.0,90,0.04,,,0.24,WUHU216DAVISVP2,2013-07-08 10:38:00,
2013-07-08 06:40:00,76.3,73.1,30.10,North,0,0.0,0.0,90,0.04,,,0.24,WUHU216DAVISVP2,2013-07-08 10:40:00,
2013-07-08 06:43:00,76.3,73.1,30.10,NNE,21,0.0,0.0,90,0.04,,,0.24,WUHU216DAVISVP2,2013-07-08 10:43:00,
2013-07-08 06:45:00,76.4,73.2,30.10,North,0,0.0,0.0,90,0.04,,,0.24,WUHU216DAVISVP2,2013-07-08 10:45:00,
2013-07-08 06:48:00,76.3,73.1,30.10,NNE,21,0.0,0.0,90,0.04,,,0.24,WUHU216DAVISVP2,2013-07-08 10:48:00,
2013-07-08 06:50:00,76.4,73.2,30.10,North,0,0.0,0.0,90,0.04,,,0.24,WUHU216DAVISVP2,2013-07-08 10:50:00,
2013-07-08 06:53:00,76.5,73.3,30.10,NNE,21,0.0,0.0,90,0.04,,,0.24,WUHU216DAVISVP2,2013-07-08 10:53:00,
2013-07-08 06:55:00,76.5,73.3,30.10,North,0,0.0,0.0,90,0.04,,,0.24,WUHU216DAVISVP2,2013-07-08 10:55:00,
2013-07-08 06:58:00,76.5,73.3,30.10,NNE,21,0.0,0.0,90,0.04,,,0.24,WUHU216DAVISVP2,2013-07-08 10:58:00,
2013-07-08 07:00:00,76.6,73.4,30.10,North,0,0.0,0.0,90,0.04,,,0.24,WUHU216DAVISVP2,2013-07-08 11:00:00,
2013-07-08 07:04:00,76.7,73.5,30.10,NNE,21,0.0,0.0,90,0.04,,,0.24,WUHU216DAVISVP2,2013-07-08 11:04:00,
2013-07-08 07:05:00,76.6,73.4,30.10,North,0,0.0,0.0,90,0.04,,,0.24,WUHU216DAVISVP2,2013-07-08 11:05:00,
2013-07-08 07:09:00,76.7,73.5,30.10,NNE,21,0.0,0.0,90,0.04,,,0.24,WUHU216DAVISVP2,2013-07-08 11:09:00,
2013-07-08 07:10:00,76.7,73.5,30.10,North,0,0.0,0.0,90,0.04,,,0.24,WUHU216DAVISVP2,2013-07-08 11:10:00,
2013-07-08 07:14:00,77.0,73.8,30.11,NNE,21,0.0,0.0,90,0.02,,,0.24,WUHU216DAVISVP2,2013-07-08 11:14:00,
2013-07-08 07:15:00,76.8,73.6,30.11,North,0,0.0,0.0,90,0.02,,,0.24,WUHU216DAVISVP2,2013-07-08 11:15:00,
2013-07-08 07:19:00,77.0,73.8,30.11,NNE,21,0.0,0.0,90,0.01,,,0.24,WUHU216DAVISVP2,2013-07-08 11:19:00,
2013-07-08 07:20:00,76.8,73.6,30.11,North,0,0.0,0.0,90,0.01,,,0.24,WUHU216DAVISVP2,2013-07-08 11:20:00,
2013-07-08 07:24:00,77.0,73.8,30.11,NNE,21,0.0,0.0,90,0.01,,,0.24,WUHU216DAVISVP2,2013-07-08 11:24:00,
2013-07-08 07:25:00,77.0,73.8,30.11,North,0,0.0,0.0,90,0.01,,,0.24,WUHU216DAVISVP2,2013-07-08 11:25:00,
2013-07-08 07:29:00,77.0,73.8,30.11,NNE,21,0.0,0.0,90,0.00,,,0.24,WUHU216DAVISVP2,2013-07-08 11:29:00,
2013-07-08 07:30:00,77.1,73.9,30.11,North,0,0.0,0.0,90,0.00,,,0.24,WUHU216DAVISVP2,2013-07-08 11:30:00,
2013-07-08 07:34:00,77.0,73.8,30.11,NNE,21,0.0,0.0,90,0.00,,,0.24,WUHU216DAVISVP2,2013-07-08 11:34:00,
2013-07-08 07:35:00,77.2,74.0,30.11,North,0,0.0,0.0,90,0.00,,,0.24,WUHU216DAVISVP2,2013-07-08 11:35:00,
2013-07-08 07:39:00,77.0,73.8,30.11,NNE,21,0.0,0.0,90,0.00,,,0.24,WUHU216DAVISVP2,2013-07-08 11:39:00,
2013-07-08 07:40:00,77.1,73.9,30.11,North,0,0.0,0.0,90,0.00,,,0.24,WUHU216DAVISVP2,2013-07-08 11:40:00,
2013-07-08 07:44:00,77.2,74.0,30.10,NNE,21,0.0,0.0,90,0.01,,,0.25,WUHU216DAVISVP2,2013-07-08 11:44:00,
2013-07-08 07:45:00,77.1,73.9,30.10,North,0,0.0,0.0,90,0.01,,,0.25,WUHU216DAVISVP2,2013-07-08 11:45:00,
2013-07-08 07:49:00,77.0,73.8,30.10,NNE,18,1.0,1.0,90,0.01,,,0.25,WUHU216DAVISVP2,2013-07-08 11:49:00,
2013-07-08 07:50:00,77.2,74.0,30.10,NNE,23,0.0,2.0,90,0.01,,,0.25,WUHU216DAVISVP2,2013-07-08 11:50:00,
2013-07-08 07:54:00,76.7,73.5,30.10,North,359,0.0,8.0,90,0.10,,,0.36,WUHU216DAVISVP2,2013-07-08 11:54:00,
2013-07-08 07:55:00,76.8,73.6,30.10,NNW,338,1.0,9.0,90,0.01,,,0.25,WUHU216DAVISVP2,2013-07-08 11:55:00,
2013-07-08 07:59:00,76.8,73.6,30.14,NNE,23,0.0,8.0,90,0.24,,,0.48,WUHU216DAVISVP2,2013-07-08 11:59:00,
2013-07-08 08:00:00,76.8,73.6,30.14,NNE,23,0.0,9.0,90,0.12,,,0.36,WUHU216DAVISVP2,2013-07-08 12:00:00,
2013-07-08 08:04:00,77.0,73.8,30.14,NNE,23,0.0,1.0,90,0.31,,,0.55,WUHU216DAVISVP2,2013-07-08 12:04:00,
2013-07-08 08:05:00,76.8,73.6,30.14,North,0,0.0,9.0,90,0.24,,,0.48,WUHU216DAVISVP2,2013-07-08 12:05:00,
2013-07-08 08:09:00,76.5,73.3,30.14,NNE,23,0.0,0.0,90,0.42,,,0.66,WUHU216DAVISVP2,2013-07-08 12:09:00,
2013-07-08 08:10:00,76.7,73.5,30.14,North,0,0.0,1.0,90,0.31,,,0.55,WUHU216DAVISVP2,2013-07-08 12:10:00,
2013-07-08 08:14:00,76.3,73.1,30.12,NNE,23,0.0,1.0,90,0.53,,,0.78,WUHU216DAVISVP2,2013-07-08 12:14:00,
2013-07-08 08:15:00,76.4,73.2,30.12,NNE,23,0.0,1.0,90,0.42,,,0.66,WUHU216DAVISVP2,2013-07-08 12:15:00,
2013-07-08 08:19:00,76.1,72.9,30.12,NNE,23,0.0,1.0,90,0.57,,,0.81,WUHU216DAVISVP2,2013-07-08 12:19:00,
2013-07-08 08:20:00,76.2,73.1,30.12,North,0,0.0,1.0,90,0.54,,,0.78,WUHU216DAVISVP2,2013-07-08 12:20:00,
2013-07-08 08:24:00,76.1,72.9,30.12,NNE,23,0.0,0.0,90,0.62,,,0.86,WUHU216DAVISVP2,2013-07-08 12:24:00,
2013-07-08 08:25:00,76.0,72.9,30.12,North,0,0.0,1.0,90,0.57,,,0.81,WUHU216DAVISVP2,2013-07-08 12:25:00,
2013-07-08 08:29:00,76.0,73.2,30.12,NNE,23,0.0,0.0,91,0.67,,,0.91,WUHU216DAVISVP2,2013-07-08 12:29:00,
2013-07-08 08:30:00,75.8,73.0,30.12,North,0,0.0,0.0,91,0.62,,,0.86,WUHU216DAVISVP2,2013-07-08 12:30:00,
2013-07-08 08:34:00,75.4,72.6,30.12,NNE,23,0.0,0.0,91,0.68,,,0.92,WUHU216DAVISVP2,2013-07-08 12:34:00,
2013-07-08 08:35:00,75.6,72.8,30.12,North,0,0.0,0.0,91,0.67,,,0.91,WUHU216DAVISVP2,2013-07-08 12:35:00,
2013-07-08 08:39:00,75.6,72.8,30.12,NNE,23,0.0,0.0,91,0.68,,,0.92,WUHU216DAVISVP2,2013-07-08 12:39:00,
2013-07-08 08:40:00,75.5,72.7,30.12,North,0,0.0,0.0,91,0.67,,,0.92,WUHU216DAVISVP2,2013-07-08 12:40:00,
2013-07-08 08:44:00,75.6,72.8,30.13,NNE,23,0.0,0.0,91,0.67,,,0.92,WUHU216DAVISVP2,2013-07-08 12:44:00,
2013-07-08 08:45:00,75.4,72.6,30.13,North,0,0.0,0.0,91,0.67,,,0.92,WUHU216DAVISVP2,2013-07-08 12:45:00,
2013-07-08 08:49:00,75.4,72.6,30.13,NNE,23,0.0,0.0,91,0.67,,,0.92,WUHU216DAVISVP2,2013-07-08 12:49:00,
2013-07-08 08:50:00,75.4,72.6,30.13,North,0,0.0,0.0,91,0.67,,,0.92,WUHU216DAVISVP2,2013-07-08 12:50:00,
2013-07-08 08:54:00,75.6,72.8,30.13,NNE,23,0.0,0.0,91,0.56,,,0.92,WUHU216DAVISVP2,2013-07-08 12:54:00,
2013-07-08 08:55:00,75.5,72.7,30.13,North,0,0.0,0.0,91,0.56,,,0.92,WUHU216DAVISVP2,2013-07-08 12:55:00,
2013-07-08 08:59:00,76.0,73.2,30.12,NNE,23,0.0,0.0,91,0.44,,,0.92,WUHU216DAVISVP2,2013-07-08 12:59:00,
2013-07-08 09:00:00,75.6,72.8,30.12,North,0,0.0,0.0,91,0.44,,,0.92,WUHU216DAVISVP2,2013-07-08 13:00:00,
2013-07-08 09:04:00,76.0,73.2,30.12,NNE,23,0.0,0.0,91,0.37,,,0.92,WUHU216DAVISVP2,2013-07-08 13:04:00,
2013-07-08 09:05:00,75.8,73.0,30.12,North,0,0.0,0.0,91,0.37,,,0.92,WUHU216DAVISVP2,2013-07-08 13:05:00,
2013-07-08 09:09:00,76.5,73.7,30.12,NNE,23,0.0,0.0,91,0.27,,,0.93,WUHU216DAVISVP2,2013-07-08 13:09:00,
2013-07-08 09:10:00,76.2,73.4,30.12,North,0,0.0,0.0,91,0.26,,,0.92,WUHU216DAVISVP2,2013-07-08 13:10:00,
2013-07-08 09:14:00,76.8,74.0,30.12,NNE,23,0.0,0.0,91,0.15,,,0.93,WUHU216DAVISVP2,2013-07-08 13:14:00,
2013-07-08 09:15:00,76.7,73.9,30.12,North,0,0.0,0.0,91,0.15,,,0.93,WUHU216DAVISVP2,2013-07-08 13:15:00,
2013-07-08 09:19:00,76.7,73.9,30.12,NNE,23,0.0,0.0,91,0.12,,,0.93,WUHU216DAVISVP2,2013-07-08 13:19:00,
2013-07-08 09:20:00,76.8,74.0,30.12,North,0,0.0,0.0,91,0.12,,,0.93,WUHU216DAVISVP2,2013-07-08 13:20:00,
2013-07-08 09:24:00,76.8,74.0,30.12,NNE,23,0.0,0.0,91,0.07,,,0.93,WUHU216DAVISVP2,2013-07-08 13:24:00,
2013-07-08 09:25:00,76.8,74.0,30.12,North,0,0.0,0.0,91,0.07,,,0.93,WUHU216DAVISVP2,2013-07-08 13:25:00,
2013-07-08 09:29:00,76.7,73.9,30.13,NNE,23,0.0,0.0,91,0.02,,,0.93,WUHU216DAVISVP2,2013-07-08 13:29:00,
2013-07-08 09:30:00,76.7,73.9,30.13,North,0,0.0,0.0,91,0.02,,,0.93,WUHU216DAVISVP2,2013-07-08 13:30:00,
2013-07-08 09:34:00,76.3,73.5,30.13,NNE,31,0.0,0.0,91,0.01,,,0.93,WUHU216DAVISVP2,2013-07-08 13:34:00,
2013-07-08 09:35:00,76.5,73.7,30.13,North,0,0.0,0.0,91,0.01,,,0.93,WUHU216DAVISVP2,2013-07-08 13:35:00,
2013-07-08 09:39:00,76.1,73.3,30.13,NNE,31,0.0,0.0,91,0.01,,,0.93,WUHU216DAVISVP2,2013-07-08 13:39:00,
2013-07-08 09:40:00,76.3,73.5,30.13,North,0,0.0,0.0,91,0.01,,,0.93,WUHU216DAVISVP2,2013-07-08 13:40:00,
2013-07-08 09:44:00,76.1,73.3,30.13,NNE,31,0.0,0.0,91,0.01,,,0.93,WUHU216DAVISVP2,2013-07-08 13:44:00,
2013-07-08 09:45:00,76.1,73.3,30.13,North,0,0.0,0.0,91,0.01,,,0.93,WUHU216DAVISVP2,2013-07-08 13:45:00,
2013-07-08 09:49:00,76.1,73.3,30.13,NNE,31,0.0,0.0,91,0.01,,,0.93,WUHU216DAVISVP2,2013-07-08 13:49:00,
2013-07-08 09:50:00,76.2,73.4,30.13,North,0,0.0,0.0,91,0.01,,,0.93,WUHU216DAVISVP2,2013-07-08 13:50:00,
2013-07-08 09:54:00,76.1,72.9,30.13,NE,42,0.0,0.0,90,0.01,,,0.93,WUHU216DAVISVP2,2013-07-08 13:54:00,
2013-07-08 09:55:00,76.2,73.1,30.13,North,0,0.0,0.0,90,0.01,,,0.93,WUHU216DAVISVP2,2013-07-08 13:55:00,
2013-07-08 09:59:00,76.1,73.3,30.13,North,3,0.0,2.0,91,0.01,,,0.93,WUHU216DAVISVP2,2013-07-08 13:59:00,
2013-07-08 10:00:00,76.1,73.3,30.13,North,0,0.0,2.0,91,0.01,,,0.93,WUHU216DAVISVP2,2013-07-08 14:00:00,
2013-07-08 10:04:00,76.3,73.1,30.13,NW,306,0.0,4.0,90,0.01,,,0.93,WUHU216DAVISVP2,2013-07-08 14:04:00,
2013-07-08 10:05:00,76.3,73.1,30.13,NW,315,0.0,6.0,90,0.01,,,0.93,WUHU216DAVISVP2,2013-07-08 14:05:00,
2013-07-08 10:09:00,76.5,73.3,30.13,NW,306,0.0,4.0,90,0.00,,,0.93,WUHU216DAVISVP2,2013-07-08 14:09:00,
2013-07-08 10:10:00,76.5,73.3,30.13,North,0,0.0,6.0,90,0.00,,,0.93,WUHU216DAVISVP2,2013-07-08 14:10:00,
2013-07-08 10:14:00,76.5,73.3,30.13,NW,306,0.0,1.0,90,0.00,,,0.93,WUHU216DAVISVP2,2013-07-08 14:14:00,
2013-07-08 10:15:00,76.4,73.2,30.13,NW,315,0.0,6.0,90,0.00,,,0.93,WUHU216DAVISVP2,2013-07-08 14:15:00,
2013-07-08 10:19:00,77.0,73.8,30.13,NW,306,0.0,1.0,90,0.00,,,0.93,WUHU216DAVISVP2,2013-07-08 14:19:00,
2013-07-08 10:20:00,76.8,73.6,30.13,North,0,0.0,1.0,90,0.00,,,0.93,WUHU216DAVISVP2,2013-07-08 14:20:00,
2013-07-08 10:24:00,77.0,73.8,30.13,NW,306,0.0,0.0,90,0.00,,,0.93,WUHU216DAVISVP2,2013-07-08 14:24:00,
2013-07-08 10:25:00,77.1,73.9,30.13,North,0,0.0,1.0,90,0.00,,,0.93,WUHU216DAVISVP2,2013-07-08 14:25:00,
2013-07-08 10:29:00,77.2,74.0,30.13,NNW,340,0.0,2.0,90,0.00,,,0.93,WUHU216DAVISVP2,2013-07-08 14:29:00,
2013-07-08 10:30:00,77.2,74.0,30.13,NW,315,0.0,4.0,90,0.00,,,0.93,WUHU216DAVISVP2,2013-07-08 14:30:00,
2013-07-08 10:34:00,77.0,73.8,30.13,WNW,298,0.0,2.0,90,0.00,,,0.93,WUHU216DAVISVP2,2013-07-08 14:34:00,
2013-07-08 10:35:00,77.1,73.9,30.13,NW,315,0.0,4.0,90,0.00,,,0.93,WUHU216DAVISVP2,2013-07-08 14:35:00,
2013-07-08 10:39:00,77.2,74.0,30.13,WNW,298,0.0,2.0,90,0.00,,,0.93,WUHU216DAVISVP2,2013-07-08 14:39:00,
2013-07-08 10:40:00,77.1,73.9,30.13,North,0,0.0,4.0,90,0.00,,,0.93,WUHU216DAVISVP2,2013-07-08 14:40:00,
2013-07-08 10:44:00,77.6,74.4,30.13,WNW,302,0.0,0.0,90,0.00,,,0.93,WUHU216DAVISVP2,2013-07-08 14:44:00,
2013-07-08 10:45:00,77.3,74.1,30.13,North,0,0.0,2.0,90,0.00,,,0.93,WUHU216DAVISVP2,2013-07-08 14:45:00,
2013-07-08 10:49:00,78.3,75.1,30.13,WNW,302,0.0,0.0,90,0.00,,,0.93,WUHU216DAVISVP2,2013-07-08 14:49:00,
2013-07-08 10:50:00,78.0,74.8,30.13,North,0,0.0,0.0,90,0.00,,,0.93,WUHU216DAVISVP2,2013-07-08 14:50:00,
2013-07-08 10:54:00,78.5,75.0,30.13,West,277,2.0,4.0,89,0.00,,,0.93,WUHU216DAVISVP2,2013-07-08 14:54:00,
2013-07-08 10:55:00,78.2,74.7,30.13,NNE,23,1.0,4.0,89,0.00,,,0.93,WUHU216DAVISVP2,2013-07-08 14:55:00,
2013-07-08 10:59:00,78.3,74.5,30.13,NW,313,0.0,4.0,88,0.00,,,0.93,WUHU216DAVISVP2,2013-07-08 14:59:00,
2013-07-08 11:00:00,78.3,74.5,30.13,NW,315,0.0,4.0,88,0.00,,,0.93,WUHU216DAVISVP2,2013-07-08 15:00:00,
2013-07-08 11:04:00,78.8,75.0,30.13,NW,319,0.0,4.0,88,0.00,,,0.93,WUHU216DAVISVP2,2013-07-08 15:04:00,
2013-07-08 11:05:00,78.5,74.6,30.13,North,0,0.0,4.0,88,0.00,,,0.93,WUHU216DAVISVP2,2013-07-08 15:05:00,
2013-07-08 11:09:00,79.4,75.5,30.13,North,354,1.0,2.0,88,0.00,,,0.93,WUHU216DAVISVP2,2013-07-08 15:09:00,
2013-07-08 11:10:00,79.1,75.2,30.13,North,0,0.0,4.0,88,0.00,,,0.93,WUHU216DAVISVP2,2013-07-08 15:10:00,
2013-07-08 11:14:00,79.0,74.8,30.13,NNW,344,0.0,6.0,87,0.00,,,0.93,WUHU216DAVISVP2,2013-07-08 15:14:00,
2013-07-08 11:15:00,79.3,75.1,30.13,North,0,1.0,6.0,87,0.00,,,0.93,WUHU216DAVISVP2,2013-07-08 15:15:00,
2013-07-08 11:19:00,79.2,75.0,30.13,West,267,0.0,6.0,87,0.00,,,0.93,WUHU216DAVISVP2,2013-07-08 15:19:00,
2013-07-08 11:20:00,79.2,75.0,30.13,North,0,0.0,6.0,87,0.00,,,0.93,WUHU216DAVISVP2,2013-07-08 15:20:00,
2013-07-08 11:24:00,79.0,74.1,30.13,NW,305,0.0,2.0,85,0.00,,,0.93,WUHU216DAVISVP2,2013-07-08 15:24:00,
2013-07-08 11:25:00,79.2,74.3,30.13,WNW,293,0.0,6.0,85,0.00,,,0.93,WUHU216DAVISVP2,2013-07-08 15:25:00,
2013-07-08 11:29:00,79.2,74.3,30.13,NW,305,0.0,1.0,85,0.00,,,0.93,WUHU216DAVISVP2,2013-07-08 15:29:00,
2013-07-08 11:30:00,79.1,74.2,30.13,NW,315,0.0,2.0,85,0.00,,,0.93,WUHU216DAVISVP2,2013-07-08 15:30:00,
2013-07-08 11:34:00,79.4,74.8,30.13,SE,145,0.0,1.0,86,0.00,,,0.93,WUHU216DAVISVP2,2013-07-08 15:34:00,
2013-07-08 11:35:00,79.3,74.7,30.13,SE,135,0.0,2.0,86,0.00,,,0.93,WUHU216DAVISVP2,2013-07-08 15:35:00,
2013-07-08 11:39:00,80.1,75.6,30.13,NNE,30,0.0,2.0,86,0.00,,,0.93,WUHU216DAVISVP2,2013-07-08 15:39:00,
2013-07-08 11:40:00,79.8,75.2,30.13,NNE,23,0.0,2.0,86,0.00,,,0.93,WUHU216DAVISVP2,2013-07-08 15:40:00,
2013-07-08 11:44:00,80.5,75.6,30.13,NNE,30,0.0,2.0,85,0.00,,,0.93,WUHU216DAVISVP2,2013-07-08 15:44:00,
2013-07-08 11:45:00,80.3,75.4,30.13,North,0,0.0,2.0,85,0.00,,,0.93,WUHU216DAVISVP2,2013-07-08 15:45:00,
2013-07-08 11:49:00,80.3,75.4,30.13,NNW,329,0.0,2.0,85,0.00,,,0.93,WUHU216DAVISVP2,2013-07-08 15:49:00,
2013-07-08 11:50:00,80.4,75.5,30.13,NNE,23,0.0,4.0,85,0.00,,,0.93,WUHU216DAVISVP2,2013-07-08 15:50:00,
2013-07-08 11:54:00,80.1,74.8,30.13,NW,318,0.0,2.0,84,0.00,,,0.93,WUHU216DAVISVP2,2013-07-08 15:54:00,
2013-07-08 11:55:00,80.2,74.9,30.13,North,0,0.0,4.0,84,0.00,,,0.93,WUHU216DAVISVP2,2013-07-08 15:55:00,
2013-07-08 11:59:00,80.1,75.2,30.13,NNW,342,0.0,1.0,85,0.00,,,0.93,WUHU216DAVISVP2,2013-07-08 15:59:00,
2013-07-08 12:00:00,80.1,75.2,30.13,NW,315,0.0,4.0,85,0.00,,,0.93,WUHU216DAVISVP2,2013-07-08 16:00:00,
2013-07-08 12:04:00,80.1,74.9,30.13,NNW,336,0.0,4.0,84,0.00,,,0.93,WUHU216DAVISVP2,2013-07-08 16:04:00,
2013-07-08 12:05:00,80.2,74.9,30.13,NNW,338,1.0,6.0,84,0.00,,,0.93,WUHU216DAVISVP2,2013-07-08 16:05:00,
2013-07-08 12:09:00,80.5,75.3,30.13,North,354,1.0,4.0,84,0.00,,,0.93,WUHU216DAVISVP2,2013-07-08 16:09:00,
2013-07-08 12:10:00,80.4,75.1,30.13,North,0,0.0,6.0,84,0.00,,,0.93,WUHU216DAVISVP2,2013-07-08 16:10:00,
2013-07-08 12:14:00,80.5,75.3,30.12,North,357,0.0,2.0,84,0.00,,,0.93,WUHU216DAVISVP2,2013-07-08 16:14:00,
2013-07-08 12:15:00,80.5,75.2,30.12,North,0,0.0,6.0,84,0.00,,,0.93,WUHU216DAVISVP2,2013-07-08 16:15:00,
2013-07-08 12:19:00,80.3,74.4,30.12,North,6,0.0,1.0,82,0.00,,,0.93,WUHU216DAVISVP2,2013-07-08 16:19:00,
2013-07-08 12:20:00,80.4,74.4,30.12,North,0,0.0,4.0,82,0.00,,,0.93,WUHU216DAVISVP2,2013-07-08 16:20:00,
2013-07-08 12:24:00,80.3,74.7,30.12,SSW,203,0.0,2.0,83,0.00,,,0.93,WUHU216DAVISVP2,2013-07-08 16:24:00,
2013-07-08 12:25:00,80.3,74.7,30.12,SSW,203,0.0,4.0,83,0.00,,,0.93,WUHU216DAVISVP2,2013-07-08 16:25:00,
2013-07-08 12:29:00,80.5,74.6,30.12,NNW,342,0.0,2.0,82,0.00,,,0.93,WUHU216DAVISVP2,2013-07-08 16:29:00,
2013-07-08 12:30:00,80.4,74.4,30.12,NNW,338,0.0,4.0,82,0.00,,,0.93,WUHU216DAVISVP2,2013-07-08 16:30:00,
2013-07-08 12:34:00,80.7,74.8,30.12,West,265,0.0,1.0,82,0.00,,,0.93,WUHU216DAVISVP2,2013-07-08 16:34:00,
2013-07-08 12:35:00,80.6,74.6,30.12,NNW,338,0.0,4.0,82,0.00,,,0.93,WUHU216DAVISVP2,2013-07-08 16:35:00,
2013-07-08 12:39:00,81.2,75.2,30.12,NNE,32,0.0,1.0,82,0.00,,,0.93,WUHU216DAVISVP2,2013-07-08 16:39:00,
2013-07-08 12:40:00,81.0,75.0,30.12,NNE,23,0.0,2.0,82,0.00,,,0.93,WUHU216DAVISVP2,2013-07-08 16:40:00,
2013-07-08 12:44:00,81.8,75.1,30.12,NE,37,0.0,1.0,80,0.00,,,0.93,WUHU216DAVISVP2,2013-07-08 16:44:00,
2013-07-08 12:45:00,81.7,74.9,30.12,North,0,0.0,1.0,80,0.00,,,0.93,WUHU216DAVISVP2,2013-07-08 16:45:00,
2013-07-08 12:49:00,81.8,75.5,30.12,NW,315,0.0,2.0,81,0.00,,,0.93,WUHU216DAVISVP2,2013-07-08 16:49:00,
2013-07-08 12:50:00,81.8,75.4,30.12,SW,225,0.0,4.0,81,0.00,,,0.93,WUHU216DAVISVP2,2013-07-08 16:50:00,
2013-07-08 12:55:00,82.6,75.6,30.12,SE,141,1.0,2.0,79,0.00,,,0.93,WUHU216DAVISVP2,2013-07-08 16:55:00,
2013-07-08 13:00:00,83.2,76.5,30.12,North,353,0.0,4.0,80,0.00,,,0.93,WUHU216DAVISVP2,2013-07-08 17:00:00,
2013-07-08 13:05:00,83.4,75.8,30.12,NW,319,0.0,4.0,78,0.00,,,0.93,WUHU216DAVISVP2,2013-07-08 17:05:00,
2013-07-08 13:10:00,83.4,75.6,30.12,NNW,328,0.0,6.0,77,0.00,,,0.93,WUHU216DAVISVP2,2013-07-08 17:10:00,
2013-07-08 13:15:00,83.4,75.4,30.12,WNW,293,0.0,7.0,77,0.00,,,0.93,WUHU216DAVISVP2,2013-07-08 17:15:00,
2013-07-08 13:16:00,83.4,75.4,30.12,NW,320,0.0,6.0,77,0.00,,,0.93,WUHU216DAVISVP2,2013-07-08 17:16:00,
2013-07-08 13:20:00,83.5,75.9,30.12,North,0,0.0,7.0,78,0.00,,,0.93,WUHU216DAVISVP2,2013-07-08 17:20:00,
2013-07-08 13:21:00,83.6,75.8,30.12,NNW,329,0.0,2.0,77,0.00,,,0.93,WUHU216DAVISVP2,2013-07-08 17:21:00,
2013-07-08 13:25:00,83.7,75.3,30.12,NNW,338,1.0,8.0,76,0.00,,,0.93,WUHU216DAVISVP2,2013-07-08 17:25:00,
2013-07-08 13:26:00,83.8,75.8,30.12,NW,323,0.0,6.0,77,0.00,,,0.93,WUHU216DAVISVP2,2013-07-08 17:26:00,
2013-07-08 13:30:00,83.8,75.8,30.11,North,0,1.0,8.0,77,0.00,,,0.93,WUHU216DAVISVP2,2013-07-08 17:30:00,
2013-07-08 13:31:00,83.8,76.0,30.11,North,349,0.0,6.0,77,0.00,,,0.93,WUHU216DAVISVP2,2013-07-08 17:31:00,
2013-07-08 13:35:00,83.8,75.0,30.11,NNW,338,0.0,8.0,75,0.00,,,0.93,WUHU216DAVISVP2,2013-07-08 17:35:00,
2013-07-08 13:37:00,83.6,75.0,30.11,NNE,31,1.0,4.0,75,0.00,,,0.93,WUHU216DAVISVP2,2013-07-08 17:37:00,
2013-07-08 13:40:00,83.6,74.8,30.11,WNW,293,0.0,7.0,75,0.00,,,0.93,WUHU216DAVISVP2,2013-07-08 17:40:00,
2013-07-08 13:42:00,83.4,74.8,30.11,WNW,294,0.0,2.0,75,0.00,,,0.93,WUHU216DAVISVP2,2013-07-08 17:42:00,
2013-07-08 13:45:00,83.4,75.0,30.11,North,0,0.0,2.0,76,0.00,,,0.93,WUHU216DAVISVP2,2013-07-08 17:45:00,
2013-07-08 13:47:00,83.8,75.6,30.11,WNW,294,0.0,2.0,76,0.00,,,0.93,WUHU216DAVISVP2,2013-07-08 17:47:00,
2013-07-08 13:50:00,83.7,75.3,30.11,North,0,0.0,2.0,76,0.00,,,0.93,WUHU216DAVISVP2,2013-07-08 17:50:00,
2013-07-08 13:52:00,83.8,74.8,30.11,NNW,340,0.0,2.0,74,0.00,,,0.93,WUHU216DAVISVP2,2013-07-08 17:52:00,
2013-07-08 13:55:00,83.9,75.1,30.11,NNW,338,0.0,4.0,75,0.00,,,0.93,WUHU216DAVISVP2,2013-07-08 17:55:00,
2013-07-08 13:57:00,84.1,75.5,30.11,WSW,254,4.0,4.0,75,0.00,,,0.93,WUHU216DAVISVP2,2013-07-08 17:57:00,
2013-07-08 14:00:00,84.1,74.9,30.10,WSW,248,0.0,4.0,74,0.00,,,0.93,WUHU216DAVISVP2,2013-07-08 18:00:00,
2013-07-08 14:02:00,84.5,76.3,30.10,NNW,343,0.0,4.0,76,0.00,,,0.93,WUHU216DAVISVP2,2013-07-08 18:02:00,
2013-07-08 14:05:00,84.4,75.6,30.10,NNW,338,0.0,6.0,75,0.00,,,0.93,WUHU216DAVISVP2,2013-07-08 18:05:00,
2013-07-08 14:07:00,84.7,75.3,30.10,NNW,339,0.0,2.0,73,0.00,,,0.93,WUHU216DAVISVP2,2013-07-08 18:07:00,
2013-07-08 14:10:00,84.7,75.9,30.10,North,0,0.0,6.0,75,0.00,,,0.93,WUHU216DAVISVP2,2013-07-08 18:10:00,
2013-07-08 14:13:00,84.9,74.9,30.10,NNW,339,0.0,2.0,72,0.00,,,0.93,WUHU216DAVISVP2,2013-07-08 18:13:00,
2013-07-08 14:15:00,85.0,76.6,30.09,North,0,0.0,6.0,76,0.00,,,0.93,WUHU216DAVISVP2,2013-07-08 18:15:00,
2013-07-08 14:18:00,85.1,76.5,30.09,NE,35,0.0,0.0,75,0.00,,,0.93,WUHU216DAVISVP2,2013-07-08 18:18:00,
2013-07-08 14:20:00,85.2,75.1,30.09,East,90,0.0,4.0,72,0.00,,,0.93,WUHU216DAVISVP2,2013-07-08 18:20:00,
2013-07-08 14:23:00,85.1,75.7,30.09,East,86,0.0,2.0,73,0.00,,,0.93,WUHU216DAVISVP2,2013-07-08 18:23:00,
2013-07-08 14:25:00,85.1,74.2,30.09,NE,45,0.0,4.0,70,0.00,,,0.93,WUHU216DAVISVP2,2013-07-08 18:25:00,
2013-07-08 14:28:00,84.9,74.7,30.09,NW,305,0.0,4.0,71,0.00,,,0.93,WUHU216DAVISVP2,2013-07-08 18:28:00,
2013-07-08 14:30:00,84.9,74.4,30.09,WNW,293,0.0,4.0,71,0.00,,,0.93,WUHU216DAVISVP2,2013-07-08 18:30:00,
2013-07-08 14:33:00,85.1,74.6,30.09,NW,305,0.0,4.0,71,0.00,,,0.93,WUHU216DAVISVP2,2013-07-08 18:33:00,
2013-07-08 14:35:00,85.1,75.1,30.09,North,0,0.0,4.0,72,0.00,,,0.93,WUHU216DAVISVP2,2013-07-08 18:35:00,
2013-07-08 14:38:00,85.1,75.7,30.09,WNW,301,0.0,0.0,73,0.00,,,0.93,WUHU216DAVISVP2,2013-07-08 18:38:00,
2013-07-08 14:40:00,85.1,75.5,30.09,North,0,0.0,2.0,73,0.00,,,0.93,WUHU216DAVISVP2,2013-07-08 18:40:00,
2013-07-08 14:44:00,85.3,75.9,30.09,WNW,301,0.0,0.0,73,0.00,,,0.93,WUHU216DAVISVP2,2013-07-08 18:44:00,
2013-07-08 14:45:00,85.3,76.1,30.09,North,0,0.0,0.0,74,0.00,,,0.93,WUHU216DAVISVP2,2013-07-08 18:45:00,
2013-07-08 14:50:00,85.3,75.9,30.09,WNW,301,0.0,0.0,73,0.00,,,0.93,WUHU216DAVISVP2,2013-07-08 18:50:00,
2013-07-08 14:55:00,85.1,74.9,30.09,WNW,301,0.0,0.0,71,0.00,,,0.93,WUHU216DAVISVP2,2013-07-08 18:55:00,
2013-07-08 15:00:00,85.1,74.9,30.09,East,79,0.0,0.0,71,0.00,,,0.93,WUHU216DAVISVP2,2013-07-08 19:00:00,
2013-07-08 15:05:00,85.3,74.4,30.09,North,0,0.0,1.0,70,0.00,,,0.93,WUHU216DAVISVP2,2013-07-08 19:05:00,
2013-07-08 15:06:00,85.3,74.4,30.09,ENE,65,0.0,0.0,70,0.00,,,0.93,WUHU216DAVISVP2,2013-07-08 19:06:00,
2013-07-08 15:10:00,85.5,75.0,30.09,NE,45,0.0,2.0,71,0.00,,,0.93,WUHU216DAVISVP2,2013-07-08 19:10:00,
2013-07-08 15:11:00,85.9,76.1,30.09,NE,52,0.0,0.0,72,0.00,,,0.93,WUHU216DAVISVP2,2013-07-08 19:11:00,
2013-07-08 15:15:00,86.1,75.2,30.09,ENE,68,0.0,2.0,70,0.00,,,0.93,WUHU216DAVISVP2,2013-07-08 19:15:00,
2013-07-08 15:16:00,86.1,75.0,30.09,ENE,68,0.0,2.0,69,0.00,,,0.93,WUHU216DAVISVP2,2013-07-08 19:16:00,
2013-07-08 15:20:00,86.0,75.5,30.09,North,0,0.0,2.0,71,0.00,,,0.93,WUHU216DAVISVP2,2013-07-08 19:20:00,
2013-07-08 15:21:00,86.3,75.8,30.09,ENE,68,0.0,2.0,71,0.00,,,0.93,WUHU216DAVISVP2,2013-07-08 19:21:00,
2013-07-08 15:25:00,86.4,74.6,30.09,North,0,0.0,2.0,68,0.00,,,0.93,WUHU216DAVISVP2,2013-07-08 19:25:00,
2013-07-08 15:26:00,87.0,75.4,30.09,North,3,0.0,1.0,68,0.00,,,0.93,WUHU216DAVISVP2,2013-07-08 19:26:00,
2013-07-08 15:30:00,87.0,75.6,30.08,North,0,0.0,1.0,69,0.00,,,0.93,WUHU216DAVISVP2,2013-07-08 19:30:00,
2013-07-08 15:31:00,87.2,75.2,30.08,North,0,0.0,4.0,67,0.00,,,0.93,WUHU216DAVISVP2,2013-07-08 19:31:00,
2013-07-08 15:35:00,87.3,74.5,30.08,North,0,0.0,4.0,66,0.00,,,0.93,WUHU216DAVISVP2,2013-07-08 19:35:00,
2013-07-08 15:37:00,87.4,73.5,30.08,North,359,0.0,4.0,63,0.00,,,0.93,WUHU216DAVISVP2,2013-07-08 19:37:00,
2013-07-08 15:40:00,87.4,74.6,30.08,North,0,0.0,4.0,66,0.00,,,0.93,WUHU216DAVISVP2,2013-07-08 19:40:00,
2013-07-08 15:42:00,87.8,74.9,30.08,North,359,0.0,0.0,65,0.00,,,0.93,WUHU216DAVISVP2,2013-07-08 19:42:00,
2013-07-08 15:45:00,87.8,75.5,30.07,North,0,0.0,4.0,67,0.00,,,0.93,WUHU216DAVISVP2,2013-07-08 19:45:00,
2013-07-08 15:48:00,88.0,75.0,30.07,North,353,0.0,1.0,65,0.00,,,0.93,WUHU216DAVISVP2,2013-07-08 19:48:00,
2013-07-08 15:50:00,88.1,74.8,30.07,North,0,0.0,2.0,65,0.00,,,0.93,WUHU216DAVISVP2,2013-07-08 19:50:00,
2013-07-08 15:53:00,88.2,75.2,30.07,NNW,340,0.0,4.0,65,0.00,,,0.93,WUHU216DAVISVP2,2013-07-08 19:53:00,
2013-07-08 15:55:00,88.2,74.0,30.07,NNW,338,0.0,4.0,63,0.00,,,0.93,WUHU216DAVISVP2,2013-07-08 19:55:00,
2013-07-08 15:58:00,88.2,74.3,30.07,NNW,340,0.0,4.0,63,0.00,,,0.93,WUHU216DAVISVP2,2013-07-08 19:58:00,
2013-07-08 16:00:00,88.1,74.4,30.06,NNW,338,0.0,4.0,64,0.00,,,0.93,WUHU216DAVISVP2,2013-07-08 20:00:00,
2013-07-08 16:03:00,88.2,74.0,30.06,North,350,0.0,1.0,63,0.00,,,0.93,WUHU216DAVISVP2,2013-07-08 20:03:00,
2013-07-08 16:05:00,88.2,74.0,30.06,North,0,0.0,4.0,63,0.00,,,0.93,WUHU216DAVISVP2,2013-07-08 20:05:00,
2013-07-08 16:09:00,88.2,74.8,30.06,North,350,0.0,1.0,64,0.00,,,0.93,WUHU216DAVISVP2,2013-07-08 20:09:00,
2013-07-08 16:10:00,88.1,74.4,30.06,North,0,0.0,2.0,64,0.00,,,0.93,WUHU216DAVISVP2,2013-07-08 20:10:00,
2013-07-08 16:14:00,88.4,75.4,30.06,North,350,0.0,1.0,65,0.00,,,0.93,WUHU216DAVISVP2,2013-07-08 20:14:00,
2013-07-08 16:15:00,88.3,75.0,30.06,North,0,0.0,2.0,65,0.00,,,0.93,WUHU216DAVISVP2,2013-07-08 20:15:00,
2013-07-08 16:19:00,88.2,74.8,30.06,East,97,0.0,2.0,64,0.00,,,0.93,WUHU216DAVISVP2,2013-07-08 20:19:00,
2013-07-08 16:20:00,88.4,74.7,30.06,East,90,0.0,2.0,64,0.00,,,0.93,WUHU216DAVISVP2,2013-07-08 20:20:00,
2013-07-08 16:24:00,88.0,74.8,30.06,East,97,0.0,2.0,65,0.00,,,0.93,WUHU216DAVISVP2,2013-07-08 20:24:00,
2013-07-08 16:25:00,88.1,74.8,30.06,North,0,0.0,2.0,65,0.00,,,0.93,WUHU216DAVISVP2,2013-07-08 20:25:00,
2013-07-08 16:30:00,88.2,75.2,30.05,East,97,0.0,0.0,65,0.00,,,0.93,WUHU216DAVISVP2,2013-07-08 20:30:00,
2013-07-08 16:35:00,88.1,74.4,30.05,North,0,0.0,0.0,64,0.00,,,0.93,WUHU216DAVISVP2,2013-07-08 20:35:00,
2013-07-08 16:36:00,88.0,75.0,30.05,East,97,0.0,0.0,65,0.00,,,0.93,WUHU216DAVISVP2,2013-07-08 20:36:00,
2013-07-08 16:40:00,88.2,74.9,30.05,East,90,0.0,1.0,65,0.00,,,0.93,WUHU216DAVISVP2,2013-07-08 20:40:00,
2013-07-08 16:41:00,88.2,74.9,30.05,East,97,0.0,1.0,65,0.00,,,0.93,WUHU216DAVISVP2,2013-07-08 20:41:00,
2013-07-08 16:45:00,88.2,75.4,30.06,North,0,0.0,1.0,66,0.00,,,0.93,WUHU216DAVISVP2,2013-07-08 20:45:00,
2013-07-08 16:46:00,88.0,75.5,30.06,East,97,0.0,1.0,66,0.00,,,0.93,WUHU216DAVISVP2,2013-07-08 20:46:00,
2013-07-08 16:50:00,88.0,74.8,30.06,North,0,0.0,1.0,65,0.00,,,0.93,WUHU216DAVISVP2,2013-07-08 20:50:00,
2013-07-08 16:52:00,88.0,74.1,30.06,East,97,0.0,0.0,63,0.00,,,0.93,WUHU216DAVISVP2,2013-07-08 20:52:00,
2013-07-08 16:55:00,88.1,74.8,30.06,North,0,0.0,0.0,65,0.00,,,0.93,WUHU216DAVISVP2,2013-07-08 20:55:00,
2013-07-08 16:58:00,88.4,75.9,30.06,East,97,0.0,0.0,66,0.00,,,0.93,WUHU216DAVISVP2,2013-07-08 20:58:00,
2013-07-08 17:00:00,88.5,75.7,30.05,North,0,0.0,0.0,66,0.00,,,0.93,WUHU216DAVISVP2,2013-07-08 21:00:00,
2013-07-08 17:03:00,88.6,74.7,30.05,East,97,0.0,0.0,63,0.00,,,0.93,WUHU216DAVISVP2,2013-07-08 21:03:00,
2013-07-08 17:05:00,88.6,74.4,30.05,North,0,0.0,0.0,63,0.00,,,0.93,WUHU216DAVISVP2,2013-07-08 21:05:00,
2013-07-08 17:08:00,89.0,74.6,30.05,East,97,0.0,0.0,62,0.00,,,0.93,WUHU216DAVISVP2,2013-07-08 21:08:00,
2013-07-08 17:10:00,88.9,74.2,30.05,North,0,0.0,0.0,62,0.00,,,0.93,WUHU216DAVISVP2,2013-07-08 21:10:00,
2013-07-08 17:13:00,89.3,74.4,30.05,East,97,0.0,0.0,61,0.00,,,0.93,WUHU216DAVISVP2,2013-07-08 21:13:00,
2013-07-08 17:15:00,89.2,74.0,30.05,North,0,0.0,0.0,61,0.00,,,0.93,WUHU216DAVISVP2,2013-07-08 21:15:00,
2013-07-08 17:18:00,89.5,75.5,30.05,East,97,0.0,0.0,63,0.00,,,0.93,WUHU216DAVISVP2,2013-07-08 21:18:00,
2013-07-08 17:20:00,89.5,74.3,30.05,North,0,0.0,0.0,61,0.00,,,0.93,WUHU216DAVISVP2,2013-07-08 21:20:00,
2013-07-08 17:23:00,89.5,75.5,30.05,East,82,0.0,0.0,63,0.00,,,0.93,WUHU216DAVISVP2,2013-07-08 21:23:00,
2013-07-08 17:25:00,89.4,75.1,30.05,North,0,0.0,0.0,63,0.00,,,0.93,WUHU216DAVISVP2,2013-07-08 21:25:00,
2013-07-08 17:30:00,89.0,74.6,30.05,East,85,0.0,0.0,62,0.00,,,0.93,WUHU216DAVISVP2,2013-07-08 21:30:00,
2013-07-08 17:35:00,88.9,75.6,30.05,North,0,0.0,0.0,65,0.00,,,0.93,WUHU216DAVISVP2,2013-07-08 21:35:00,
2013-07-08 17:36:00,88.8,75.8,30.05,East,85,0.0,0.0,65,0.00,,,0.93,WUHU216DAVISVP2,2013-07-08 21:36:00,
2013-07-08 17:40:00,88.6,75.8,30.05,North,0,0.0,0.0,66,0.00,,,0.93,WUHU216DAVISVP2,2013-07-08 21:40:00,
2013-07-08 17:43:00,87.8,75.3,30.05,East,85,0.0,0.0,66,0.00,,,0.93,WUHU216DAVISVP2,2013-07-08 21:43:00,
2013-07-08 17:45:00,88.0,75.2,30.05,North,0,0.0,0.0,66,0.00,,,0.93,WUHU216DAVISVP2,2013-07-08 21:45:00,
2013-07-08 17:48:00,87.0,75.0,30.05,East,85,0.0,0.0,67,0.00,,,0.93,WUHU216DAVISVP2,2013-07-08 21:48:00,
2013-07-08 17:50:00,87.1,75.3,30.05,North,0,0.0,0.0,68,0.00,,,0.93,WUHU216DAVISVP2,2013-07-08 21:50:00,
2013-07-08 17:53:00,86.3,74.8,30.05,East,85,0.0,0.0,68,0.00,,,0.93,WUHU216DAVISVP2,2013-07-08 21:53:00,
2013-07-08 17:55:00,86.2,75.3,30.05,East,90,0.0,1.0,70,0.00,,,0.93,WUHU216DAVISVP2,2013-07-08 21:55:00,
2013-07-08 17:58:00,85.1,74.9,30.05,East,90,0.0,1.0,71,0.00,,,0.93,WUHU216DAVISVP2,2013-07-08 21:58:00,
2013-07-08 18:00:00,85.3,75.2,30.05,North,0,0.0,1.0,72,0.00,,,0.93,WUHU216DAVISVP2,2013-07-08 22:00:00,
2013-07-08 18:03:00,85.1,75.3,30.05,East,86,0.0,2.0,72,0.00,,,0.93,WUHU216DAVISVP2,2013-07-08 22:03:00,
2013-07-08 18:05:00,85.1,75.1,30.05,East,90,0.0,4.0,72,0.00,,,0.93,WUHU216DAVISVP2,2013-07-08 22:05:00,
2013-07-08 18:08:00,84.9,75.5,30.05,East,86,0.0,2.0,73,0.00,,,0.93,WUHU216DAVISVP2,2013-07-08 22:08:00,
2013-07-08 18:10:00,84.9,75.3,30.05,East,90,0.0,4.0,73,0.00,,,0.93,WUHU216DAVISVP2,2013-07-08 22:10:00,
2013-07-08 18:13:00,84.9,75.3,30.04,East,86,0.0,2.0,73,0.00,,,0.93,WUHU216DAVISVP2,2013-07-08 22:13:00,
2013-07-08 18:15:00,84.9,75.3,30.04,North,0,0.0,4.0,73,0.00,,,0.93,WUHU216DAVISVP2,2013-07-08 22:15:00,
2013-07-08 18:19:00,85.1,75.7,30.04,East,86,0.0,0.0,73,0.00,,,0.93,WUHU216DAVISVP2,2013-07-08 22:19:00,
2013-07-08 18:20:00,85.1,75.5,30.04,North,0,0.0,4.0,73,0.00,,,0.93,WUHU216DAVISVP2,2013-07-08 22:20:00,
2013-07-08 18:24:00,85.1,76.1,30.04,East,86,0.0,0.0,74,0.00,,,0.93,WUHU216DAVISVP2,2013-07-08 22:24:00,
2013-07-08 18:25:00,85.1,75.9,30.04,North,0,0.0,0.0,74,0.00,,,0.93,WUHU216DAVISVP2,2013-07-08 22:25:00,
2013-07-08 18:30:00,85.1,75.9,30.04,East,86,0.0,0.0,74,0.00,,,0.93,WUHU216DAVISVP2,2013-07-08 22:30:00,
2013-07-08 18:35:00,85.1,76.1,30.04,East,86,0.0,0.0,74,0.00,,,0.93,WUHU216DAVISVP2,2013-07-08 22:35:00,
2013-07-08 18:40:00,84.7,76.1,30.04,East,86,0.0,0.0,75,0.00,,,0.93,WUHU216DAVISVP2,2013-07-08 22:40:00,
2013-07-08 18:45:00,84.7,75.9,30.05,North,0,0.0,0.0,75,0.00,,,0.93,WUHU216DAVISVP2,2013-07-08 22:45:00,
2013-07-08 18:46:00,84.5,75.7,30.05,East,86,0.0,0.0,75,0.00,,,0.93,WUHU216DAVISVP2,2013-07-08 22:46:00,
2013-07-08 18:50:00,84.4,75.6,30.05,North,0,0.0,0.0,75,0.00,,,0.93,WUHU216DAVISVP2,2013-07-08 22:50:00,
2013-07-08 18:51:00,84.3,75.7,30.05,East,86,0.0,0.0,75,0.00,,,0.93,WUHU216DAVISVP2,2013-07-08 22:51:00,
2013-07-08 18:55:00,84.3,75.9,30.05,North,0,0.0,0.0,76,0.00,,,0.93,WUHU216DAVISVP2,2013-07-08 22:55:00,
2013-07-08 18:56:00,84.1,75.9,30.05,ESE,102,0.0,1.0,76,0.00,,,0.93,WUHU216DAVISVP2,2013-07-08 22:56:00,
2013-07-08 19:00:00,84.0,75.6,30.06,ESE,113,0.0,1.0,76,0.00,,,0.93,WUHU216DAVISVP2,2013-07-08 23:00:00,
2013-07-08 19:02:00,83.8,75.4,30.06,ESE,102,0.0,1.0,76,0.00,,,0.93,WUHU216DAVISVP2,2013-07-08 23:02:00,
2013-07-08 19:05:00,83.7,75.3,30.06,East,90,0.0,1.0,76,0.00,,,0.93,WUHU216DAVISVP2,2013-07-08 23:05:00,
2013-07-08 19:07:00,83.2,75.0,30.06,East,97,0.0,1.0,76,0.00,,,0.93,WUHU216DAVISVP2,2013-07-08 23:07:00,
2013-07-08 19:10:00,83.2,75.2,30.06,SE,135,0.0,2.0,77,0.00,,,0.93,WUHU216DAVISVP2,2013-07-08 23:10:00,
2013-07-08 19:12:00,82.8,74.6,30.06,SSE,157,0.0,1.0,76,0.00,,,0.93,WUHU216DAVISVP2,2013-07-08 23:12:00,
2013-07-08 19:15:00,82.7,74.4,30.07,NW,315,0.0,4.0,76,0.00,,,0.93,WUHU216DAVISVP2,2013-07-08 23:15:00,
2013-07-08 19:17:00,82.2,74.4,30.07,NW,308,0.0,1.0,77,0.00,,,0.93,WUHU216DAVISVP2,2013-07-08 23:17:00,
2013-07-08 19:20:00,82.2,74.3,30.07,North,0,0.0,4.0,77,0.00,,,0.93,WUHU216DAVISVP2,2013-07-08 23:20:00,
2013-07-08 19:22:00,81.6,73.7,30.07,WNW,289,2.0,2.0,77,0.00,,,0.93,WUHU216DAVISVP2,2013-07-08 23:22:00,
2013-07-08 19:25:00,81.6,73.7,30.07,WSW,248,0.0,4.0,77,0.00,,,0.93,WUHU216DAVISVP2,2013-07-08 23:25:00,
2013-07-08 19:28:00,81.1,73.2,30.07,SSW,212,0.0,2.0,77,0.00,,,0.93,WUHU216DAVISVP2,2013-07-08 23:28:00,
2013-07-08 19:30:00,81.1,73.2,30.08,SSW,203,0.0,4.0,77,0.00,,,0.93,WUHU216DAVISVP2,2013-07-08 23:30:00,
2013-07-08 19:33:00,80.5,72.6,30.08,SSW,212,0.0,2.0,77,0.00,,,0.93,WUHU216DAVISVP2,2013-07-08 23:33:00,
2013-07-08 19:35:00,80.7,73.2,30.08,SSW,203,0.0,4.0,78,0.00,,,0.93,WUHU216DAVISVP2,2013-07-08 23:35:00,
2013-07-08 19:38:00,80.1,72.6,30.08,SSW,212,0.0,0.0,78,0.00,,,0.93,WUHU216DAVISVP2,2013-07-08 23:38:00,
2013-07-08 19:40:00,80.2,72.7,30.08,North,0,0.0,4.0,78,0.00,,,0.93,WUHU216DAVISVP2,2013-07-08 23:40:00,
2013-07-08 19:44:00,79.6,72.1,30.08,South,184,0.0,0.0,78,0.00,,,0.93,WUHU216DAVISVP2,2013-07-08 23:44:00,
2013-07-08 19:45:00,79.8,72.3,30.08,North,0,0.0,1.0,78,0.00,,,0.93,WUHU216DAVISVP2,2013-07-08 23:45:00,
2013-07-08 19:49:00,79.2,72.2,30.08,NW,326,0.0,1.0,79,0.00,,,0.93,WUHU216DAVISVP2,2013-07-08 23:49:00,
2013-07-08 19:50:00,79.4,72.3,30.08,NW,315,0.0,1.0,79,0.00,,,0.93,WUHU216DAVISVP2,2013-07-08 23:50:00,
2013-07-08 19:55:00,78.8,71.9,30.08,NW,315,0.0,1.0,79,0.00,,,0.93,WUHU216DAVISVP2,2013-07-08 23:55:00,
2013-07-08 20:00:00,78.5,71.6,30.08,ENE,59,0.0,1.0,79,0.00,,,0.93,WUHU216DAVISVP2,2013-07-09 00:00:00,
2013-07-08 20:05:00,77.9,71.0,30.08,ENE,59,0.0,1.0,79,0.00,,,0.93,WUHU216DAVISVP2,2013-07-09 00:05:00,
2013-07-08 20:10:00,77.8,71.1,30.08,North,0,0.0,1.0,80,0.00,,,0.93,WUHU216DAVISVP2,2013-07-09 00:10:00,
2013-07-08 20:11:00,77.6,70.9,30.08,NW,306,0.0,0.0,80,0.00,,,0.93,WUHU216DAVISVP2,2013-07-09 00:11:00,
2013-07-08 20:15:00,77.6,70.9,30.08,North,0,0.0,0.0,80,0.00,,,0.93,WUHU216DAVISVP2,2013-07-09 00:15:00,
2013-07-08 20:17:00,77.6,71.0,30.08,NW,306,0.0,0.0,80,0.00,,,0.93,WUHU216DAVISVP2,2013-07-09 00:17:00,
2013-07-08 20:20:00,77.4,70.7,30.08,North,0,0.0,0.0,80,0.00,,,0.93,WUHU216DAVISVP2,2013-07-09 00:20:00,
2013-07-08 20:22:00,77.2,70.5,30.08,NW,306,0.0,0.0,80,0.00,,,0.93,WUHU216DAVISVP2,2013-07-09 00:22:00,
2013-07-08 20:25:00,77.2,70.9,30.08,North,0,0.0,0.0,81,0.00,,,0.93,WUHU216DAVISVP2,2013-07-09 00:25:00,
2013-07-08 20:28:00,77.0,70.7,30.08,NW,306,0.0,0.0,81,0.00,,,0.93,WUHU216DAVISVP2,2013-07-09 00:28:00,
2013-07-08 20:30:00,77.1,70.8,30.08,North,0,0.0,0.0,81,0.00,,,0.93,WUHU216DAVISVP2,2013-07-09 00:30:00,
2013-07-08 20:33:00,76.8,70.5,30.08,NW,306,0.0,0.0,81,0.00,,,0.93,WUHU216DAVISVP2,2013-07-09 00:33:00,
2013-07-08 20:35:00,76.8,70.5,30.08,North,0,0.0,0.0,81,0.00,,,0.93,WUHU216DAVISVP2,2013-07-09 00:35:00,
2013-07-08 20:38:00,76.7,70.4,30.08,NW,306,0.0,0.0,81,0.00,,,0.93,WUHU216DAVISVP2,2013-07-09 00:38:00,
2013-07-08 20:40:00,76.7,70.4,30.08,North,0,0.0,0.0,81,0.00,,,0.93,WUHU216DAVISVP2,2013-07-09 00:40:00,
2013-07-08 20:43:00,76.5,70.2,30.08,NW,306,0.0,0.0,81,0.00,,,0.93,WUHU216DAVISVP2,2013-07-09 00:43:00,
2013-07-08 20:45:00,76.5,70.6,30.09,North,0,0.0,0.0,82,0.00,,,0.93,WUHU216DAVISVP2,2013-07-09 00:45:00,
2013-07-08 20:48:00,76.5,70.6,30.09,NW,306,0.0,0.0,82,0.00,,,0.93,WUHU216DAVISVP2,2013-07-09 00:48:00,
2013-07-08 20:50:00,76.5,70.6,30.09,North,0,0.0,0.0,82,0.00,,,0.93,WUHU216DAVISVP2,2013-07-09 00:50:00,
2013-07-08 20:54:00,76.3,70.4,30.09,NW,306,0.0,0.0,82,0.00,,,0.93,WUHU216DAVISVP2,2013-07-09 00:54:00,
2013-07-08 20:55:00,76.4,70.9,30.09,North,0,0.0,0.0,83,0.00,,,0.93,WUHU216DAVISVP2,2013-07-09 00:55:00,
2013-07-08 20:59:00,76.3,70.8,30.09,NW,306,0.0,0.0,83,0.00,,,0.93,WUHU216DAVISVP2,2013-07-09 00:59:00,
2013-07-08 21:00:00,76.3,70.8,30.09,North,0,0.0,0.0,83,0.00,,,0.93,WUHU216DAVISVP2,2013-07-09 01:00:00,
2013-07-08 21:04:00,76.3,70.8,30.09,NW,306,0.0,0.0,83,0.00,,,0.93,WUHU216DAVISVP2,2013-07-09 01:04:00,
2013-07-08 21:05:00,76.3,70.8,30.09,North,0,0.0,0.0,83,0.00,,,0.93,WUHU216DAVISVP2,2013-07-09 01:05:00,
2013-07-08 21:09:00,76.3,70.8,30.09,North,11,0.0,1.0,83,0.00,,,0.93,WUHU216DAVISVP2,2013-07-09 01:09:00,
2013-07-08 21:10:00,76.3,70.8,30.09,North,0,0.0,1.0,83,0.00,,,0.93,WUHU216DAVISVP2,2013-07-09 01:10:00,
2013-07-08 21:14:00,76.3,71.2,30.09,North,11,0.0,1.0,84,0.00,,,0.93,WUHU216DAVISVP2,2013-07-09 01:14:00,
2013-07-08 21:15:00,76.3,71.1,30.09,North,0,0.0,1.0,84,0.00,,,0.93,WUHU216DAVISVP2,2013-07-09 01:15:00,
2013-07-08 21:19:00,76.3,71.2,30.09,North,11,0.0,0.0,84,0.00,,,0.93,WUHU216DAVISVP2,2013-07-09 01:19:00,
2013-07-08 21:20:00,76.3,71.1,30.09,North,0,0.0,1.0,84,0.00,,,0.93,WUHU216DAVISVP2,2013-07-09 01:20:00,
2013-07-08 21:24:00,76.3,71.2,30.09,North,11,0.0,0.0,84,0.00,,,0.93,WUHU216DAVISVP2,2013-07-09 01:24:00,
2013-07-08 21:25:00,76.3,71.1,30.09,North,0,0.0,0.0,84,0.00,,,0.93,WUHU216DAVISVP2,2013-07-09 01:25:00,
2013-07-08 21:29:00,76.1,71.0,30.09,NW,319,0.0,0.0,84,0.00,,,0.93,WUHU216DAVISVP2,2013-07-09 01:29:00,
2013-07-08 21:30:00,76.1,70.9,30.09,North,0,0.0,0.0,84,0.00,,,0.93,WUHU216DAVISVP2,2013-07-09 01:30:00,
2013-07-08 21:34:00,76.1,70.9,30.09,NW,319,0.0,0.0,84,0.00,,,0.93,WUHU216DAVISVP2,2013-07-09 01:34:00,
2013-07-08 21:35:00,76.1,70.9,30.09,North,0,0.0,0.0,84,0.00,,,0.93,WUHU216DAVISVP2,2013-07-09 01:35:00,
2013-07-08 21:39:00,76.1,70.9,30.09,NW,319,0.0,0.0,84,0.00,,,0.93,WUHU216DAVISVP2,2013-07-09 01:39:00,
2013-07-08 21:40:00,76.1,70.9,30.09,North,0,0.0,0.0,84,0.00,,,0.93,WUHU216DAVISVP2,2013-07-09 01:40:00,
2013-07-08 21:45:00,76.0,70.9,30.09,NW,319,0.0,0.0,84,0.00,,,0.93,WUHU216DAVISVP2,2013-07-09 01:45:00,
2013-07-08 21:50:00,76.0,70.8,30.09,North,0,0.0,0.0,84,0.00,,,0.93,WUHU216DAVISVP2,2013-07-09 01:50:00,
2013-07-08 21:51:00,76.0,70.9,30.09,NW,319,0.0,0.0,84,0.00,,,0.93,WUHU216DAVISVP2,2013-07-09 01:51:00,
2013-07-08 21:55:00,76.0,71.2,30.09,North,0,0.0,0.0,85,0.00,,,0.93,WUHU216DAVISVP2,2013-07-09 01:55:00,
2013-07-08 21:56:00,76.0,70.8,30.09,NW,319,0.0,0.0,84,0.00,,,0.93,WUHU216DAVISVP2,2013-07-09 01:56:00,
2013-07-08 22:00:00,75.9,71.1,30.09,North,0,0.0,0.0,85,0.00,,,0.93,WUHU216DAVISVP2,2013-07-09 02:00:00,
2013-07-08 22:01:00,75.8,71.0,30.09,NW,319,0.0,0.0,85,0.00,,,0.93,WUHU216DAVISVP2,2013-07-09 02:01:00,
2013-07-08 22:05:00,75.8,71.0,30.09,North,0,0.0,0.0,85,0.00,,,0.93,WUHU216DAVISVP2,2013-07-09 02:05:00,
2013-07-08 22:06:00,75.8,71.0,30.09,NW,319,0.0,0.0,85,0.00,,,0.93,WUHU216DAVISVP2,2013-07-09 02:06:00,
2013-07-08 22:10:00,75.8,71.0,30.09,North,0,0.0,0.0,85,0.00,,,0.93,WUHU216DAVISVP2,2013-07-09 02:10:00,
2013-07-08 22:11:00,75.8,71.0,30.09,NW,319,0.0,0.0,85,0.00,,,0.93,WUHU216DAVISVP2,2013-07-09 02:11:00,
2013-07-08 22:15:00,75.7,70.9,30.09,North,0,0.0,0.0,85,0.00,,,0.93,WUHU216DAVISVP2,2013-07-09 02:15:00,
2013-07-08 22:16:00,75.6,70.8,30.09,NW,319,0.0,0.0,85,0.00,,,0.93,WUHU216DAVISVP2,2013-07-09 02:16:00,
2013-07-08 22:20:00,75.7,70.9,30.09,North,0,0.0,0.0,85,0.00,,,0.93,WUHU216DAVISVP2,2013-07-09 02:20:00,
2013-07-08 22:21:00,75.6,70.8,30.09,NW,319,0.0,0.0,85,0.00,,,0.93,WUHU216DAVISVP2,2013-07-09 02:21:00,
2013-07-08 22:25:00,75.7,70.9,30.09,North,0,0.0,0.0,85,0.00,,,0.93,WUHU216DAVISVP2,2013-07-09 02:25:00,
2013-07-08 22:26:00,75.6,70.8,30.09,NW,319,0.0,0.0,85,0.00,,,0.93,WUHU216DAVISVP2,2013-07-09 02:26:00,
2013-07-08 22:30:00,75.7,70.9,30.09,North,0,0.0,0.0,85,0.00,,,0.93,WUHU216DAVISVP2,2013-07-09 02:30:00,
2013-07-08 22:32:00,75.6,70.8,30.09,NW,319,0.0,0.0,85,0.00,,,0.93,WUHU216DAVISVP2,2013-07-09 02:32:00,
2013-07-08 22:35:00,75.6,70.8,30.09,North,0,0.0,0.0,85,0.00,,,0.93,WUHU216DAVISVP2,2013-07-09 02:35:00,
2013-07-08 22:37:00,75.6,70.8,30.09,NW,319,0.0,0.0,85,0.00,,,0.93,WUHU216DAVISVP2,2013-07-09 02:37:00,
2013-07-08 22:40:00,75.5,70.7,30.09,North,0,0.0,0.0,85,0.00,,,0.93,WUHU216DAVISVP2,2013-07-09 02:40:00,
2013-07-08 22:42:00,75.6,70.8,30.09,NW,319,0.0,0.0,85,0.00,,,0.93,WUHU216DAVISVP2,2013-07-09 02:42:00,
2013-07-08 22:45:00,75.4,70.6,30.09,North,0,0.0,0.0,85,0.00,,,0.93,WUHU216DAVISVP2,2013-07-09 02:45:00,
2013-07-08 22:47:00,75.4,70.9,30.09,NW,319,0.0,0.0,86,0.00,,,0.93,WUHU216DAVISVP2,2013-07-09 02:47:00,
2013-07-08 22:50:00,75.4,70.9,30.09,North,0,0.0,0.0,86,0.00,,,0.93,WUHU216DAVISVP2,2013-07-09 02:50:00,
2013-07-08 22:53:00,75.4,70.9,30.09,NW,319,0.0,0.0,86,0.00,,,0.93,WUHU216DAVISVP2,2013-07-09 02:53:00,
2013-07-08 22:55:00,75.4,70.9,30.09,North,0,0.0,0.0,86,0.00,,,0.93,WUHU216DAVISVP2,2013-07-09 02:55:00,
2013-07-08 22:58:00,75.6,71.1,30.09,NW,319,0.0,0.0,86,0.00,,,0.93,WUHU216DAVISVP2,2013-07-09 02:58:00,
2013-07-08 23:00:00,75.6,71.1,30.10,North,0,0.0,0.0,86,0.00,,,0.93,WUHU216DAVISVP2,2013-07-09 03:00:00,
2013-07-08 23:03:00,75.6,71.1,30.10,NW,319,0.0,0.0,86,0.00,,,0.93,WUHU216DAVISVP2,2013-07-09 03:03:00,
2013-07-08 23:05:00,75.6,71.1,30.10,North,0,0.0,0.0,86,0.00,,,0.93,WUHU216DAVISVP2,2013-07-09 03:05:00,
2013-07-08 23:08:00,75.6,71.1,30.10,NW,319,0.0,0.0,86,0.00,,,0.93,WUHU216DAVISVP2,2013-07-09 03:08:00,
2013-07-08 23:10:00,75.6,71.1,30.10,North,0,0.0,0.0,86,0.00,,,0.93,WUHU216DAVISVP2,2013-07-09 03:10:00,
2013-07-08 23:13:00,75.6,71.5,30.10,NW,319,0.0,0.0,87,0.00,,,0.93,WUHU216DAVISVP2,2013-07-09 03:13:00,
2013-07-08 23:15:00,75.6,71.5,30.10,North,0,0.0,0.0,87,0.00,,,0.93,WUHU216DAVISVP2,2013-07-09 03:15:00,
2013-07-08 23:19:00,75.4,71.3,30.10,NW,319,0.0,0.0,87,0.00,,,0.93,WUHU216DAVISVP2,2013-07-09 03:19:00,
2013-07-08 23:20:00,75.6,71.5,30.10,North,0,0.0,0.0,87,0.00,,,0.93,WUHU216DAVISVP2,2013-07-09 03:20:00,
2013-07-08 23:24:00,75.6,71.5,30.10,NW,319,0.0,0.0,87,0.00,,,0.93,WUHU216DAVISVP2,2013-07-09 03:24:00,
2013-07-08 23:25:00,75.4,71.3,30.10,North,0,0.0,0.0,87,0.00,,,0.93,WUHU216DAVISVP2,2013-07-09 03:25:00,
2013-07-08 23:29:00,75.4,71.3,30.10,NW,319,0.0,0.0,87,0.00,,,0.93,WUHU216DAVISVP2,2013-07-09 03:29:00,
2013-07-08 23:30:00,75.4,71.3,30.10,North,0,0.0,0.0,87,0.00,,,0.93,WUHU216DAVISVP2,2013-07-09 03:30:00,
2013-07-08 23:34:00,75.3,71.2,30.10,NW,319,0.0,0.0,87,0.00,,,0.93,WUHU216DAVISVP2,2013-07-09 03:34:00,
2013-07-08 23:35:00,75.3,71.2,30.10,North,0,0.0,0.0,87,0.00,,,0.93,WUHU216DAVISVP2,2013-07-09 03:35:00,
2013-07-08 23:40:00,75.3,71.2,30.10,NW,319,0.0,0.0,87,0.00,,,0.93,WUHU216DAVISVP2,2013-07-09 03:40:00,
2013-07-08 23:45:00,75.4,71.3,30.11,NW,319,0.0,0.0,87,0.00,,,0.93,WUHU216DAVISVP2,2013-07-09 03:45:00,
2013-07-08 23:50:00,75.4,71.3,30.11,NW,319,0.0,0.0,87,0.00,,,0.93,WUHU216DAVISVP2,2013-07-09 03:50:00,
2013-07-08 23:55:00,75.4,71.3,30.11,NW,319,0.0,0.0,87,0.00,,,0.93,WUHU216DAVISVP2,2013-07-09 03:55:00,